sensor_id;sensor_type;location;lat;lon;timestamp;P1;durP1;ratioP1;P2;durP2;ratioP2
16784;SDS011;8509;52.178;5.404;2023-10-31T00:00:55;0.43;;;0.43;;
16784;SDS011;8509;52.178;5.404;2023-10-31T00:03:21;0.25;;;0.25;;
16784;SDS011;8509;52.178;5.404;2023-10-31T00:05:46;0.43;;;0.43;;
16784;SDS011;8509;52.178;5.404;2023-10-31T00:08:12;1.20;;;1.10;;
16784;SDS011;8509;52.178;5.404;2023-10-31T00:10:37;0.63;;;0.30;;
16784;SDS011;8509;52.178;5.404;2023-10-31T00:13:03;1.23;;;0.52;;
16784;SDS011;8509;52.178;5.404;2023-10-31T00:15:29;0.45;;;0.32;;
16784;SDS011;8509;52.178;5.404;2023-10-31T00:17:55;0.25;;;0.25;;
16784;SDS011;8509;52.178;5.404;2023-10-31T00:20:21;0.20;;;0.20;;
16784;SDS011;8509;52.178;5.404;2023-10-31T00:22:49;0.45;;;0.45;;
16784;SDS011;8509;52.178;5.404;2023-10-31T00:25:15;0.40;;;0.40;;
16784;SDS011;8509;52.178;5.404;2023-10-31T00:27:41;0.40;;;0.40;;
16784;SDS011;8509;52.178;5.404;2023-10-31T00:30:07;0.60;;;0.60;;
16784;SDS011;8509;52.178;5.404;2023-10-31T00:32:33;0.82;;;0.63;;
16784;SDS011;8509;52.178;5.404;2023-10-31T00:34:59;1.75;;;0.60;;
16784;SDS011;8509;52.178;5.404;2023-10-31T00:37:24;4.15;;;0.50;;
16784;SDS011;8509;52.178;5.404;2023-10-31T00:39:50;1.80;;;0.85;;
16784;SDS011;8509;52.178;5.404;2023-10-31T00:42:15;1.10;;;1.00;;
16784;SDS011;8509;52.178;5.404;2023-10-31T00:44:42;4.32;;;1.88;;
16784;SDS011;8509;52.178;5.404;2023-10-31T00:47:07;2.55;;;1.50;;
16784;SDS011;8509;52.178;5.404;2023-10-31T00:49:33;6.68;;;1.40;;
16784;SDS011;8509;52.178;5.404;2023-10-31T00:51:59;3.15;;;1.95;;
16784;SDS011;8509;52.178;5.404;2023-10-31T00:54:24;3.90;;;2.17;;
16784;SDS011;8509;52.178;5.404;2023-10-31T00:56:50;4.97;;;1.92;;
16784;SDS011;8509;52.178;5.404;2023-10-31T00:59:15;6.50;;;2.72;;
16784;SDS011;8509;52.178;5.404;2023-10-31T01:01:42;8.00;;;3.42;;
16784;SDS011;8509;52.178;5.404;2023-10-31T01:04:08;6.60;;;3.53;;
16784;SDS011;8509;52.178;5.404;2023-10-31T01:06:39;10.35;;;4.15;;
16784;SDS011;8509;52.178;5.404;2023-10-31T01:09:08;6.40;;;3.38;;
16784;SDS011;8509;52.178;5.404;2023-10-31T01:11:34;8.65;;;3.33;;
16784;SDS011;8509;52.178;5.404;2023-10-31T01:14:01;7.00;;;3.40;;
16784;SDS011;8509;52.178;5.404;2023-10-31T01:16:26;9.93;;;5.25;;
16784;SDS011;8509;52.178;5.404;2023-10-31T01:18:52;10.38;;;4.50;;
16784;SDS011;8509;52.178;5.404;2023-10-31T01:21:17;7.80;;;3.80;;
16784;SDS011;8509;52.178;5.404;2023-10-31T01:23:43;7.97;;;3.80;;
16784;SDS011;8509;52.178;5.404;2023-10-31T01:26:09;9.32;;;2.92;;
16784;SDS011;8509;52.178;5.404;2023-10-31T01:28:35;13.77;;;4.82;;
16784;SDS011;8509;52.178;5.404;2023-10-31T01:31:00;7.60;;;4.63;;
16784;SDS011;8509;52.178;5.404;2023-10-31T01:33:26;7.32;;;3.45;;
16784;SDS011;8509;52.178;5.404;2023-10-31T01:35:52;6.22;;;2.80;;
16784;SDS011;8509;52.178;5.404;2023-10-31T01:38:17;8.98;;;2.42;;
16784;SDS011;8509;52.178;5.404;2023-10-31T01:40:43;5.40;;;2.58;;
16784;SDS011;8509;52.178;5.404;2023-10-31T01:43:08;3.38;;;2.10;;
16784;SDS011;8509;52.178;5.404;2023-10-31T01:45:34;4.40;;;2.20;;
16784;SDS011;8509;52.178;5.404;2023-10-31T01:48:00;2.55;;;1.70;;
16784;SDS011;8509;52.178;5.404;2023-10-31T01:50:26;6.78;;;2.15;;
16784;SDS011;8509;52.178;5.404;2023-10-31T01:52:52;3.58;;;1.75;;
16784;SDS011;8509;52.178;5.404;2023-10-31T01:55:18;3.75;;;2.22;;
16784;SDS011;8509;52.178;5.404;2023-10-31T01:57:47;6.43;;;2.05;;
16784;SDS011;8509;52.178;5.404;2023-10-31T02:00:14;5.28;;;1.55;;
16784;SDS011;8509;52.178;5.404;2023-10-31T02:02:41;3.13;;;1.55;;
16784;SDS011;8509;52.178;5.404;2023-10-31T02:05:11;3.03;;;1.25;;
16784;SDS011;8509;52.178;5.404;2023-10-31T02:07:36;4.68;;;1.38;;
16784;SDS011;8509;52.178;5.404;2023-10-31T02:10:02;3.15;;;2.00;;
16784;SDS011;8509;52.178;5.404;2023-10-31T02:12:34;5.43;;;2.78;;
16784;SDS011;8509;52.178;5.404;2023-10-31T02:15:00;4.60;;;2.55;;
16784;SDS011;8509;52.178;5.404;2023-10-31T02:17:27;9.55;;;3.47;;
16784;SDS011;8509;52.178;5.404;2023-10-31T02:19:53;5.57;;;2.75;;
16784;SDS011;8509;52.178;5.404;2023-10-31T02:22:19;5.80;;;2.45;;
16784;SDS011;8509;52.178;5.404;2023-10-31T02:24:44;6.43;;;3.08;;
16784;SDS011;8509;52.178;5.404;2023-10-31T02:27:12;6.50;;;3.38;;
16784;SDS011;8509;52.178;5.404;2023-10-31T02:29:41;11.32;;;3.95;;
16784;SDS011;8509;52.178;5.404;2023-10-31T02:32:07;5.13;;;2.90;;
16784;SDS011;8509;52.178;5.404;2023-10-31T02:34:32;5.53;;;2.88;;
16784;SDS011;8509;52.178;5.404;2023-10-31T02:36:59;10.70;;;3.92;;
16784;SDS011;8509;52.178;5.404;2023-10-31T02:39:25;5.72;;;3.13;;
16784;SDS011;8509;52.178;5.404;2023-10-31T02:41:50;6.00;;;3.05;;
16784;SDS011;8509;52.178;5.404;2023-10-31T02:44:16;10.85;;;4.05;;
16784;SDS011;8509;52.178;5.404;2023-10-31T02:46:42;6.05;;;2.92;;
16784;SDS011;8509;52.178;5.404;2023-10-31T02:49:07;5.90;;;3.42;;
16784;SDS011;8509;52.178;5.404;2023-10-31T02:51:34;7.18;;;3.95;;
16784;SDS011;8509;52.178;5.404;2023-10-31T02:54:00;6.68;;;4.45;;
16784;SDS011;8509;52.178;5.404;2023-10-31T02:56:26;13.38;;;4.47;;
16784;SDS011;8509;52.178;5.404;2023-10-31T02:58:52;8.35;;;4.20;;
16784;SDS011;8509;52.178;5.404;2023-10-31T03:01:17;6.22;;;3.45;;
16784;SDS011;8509;52.178;5.404;2023-10-31T03:03:45;6.25;;;3.47;;
16784;SDS011;8509;52.178;5.404;2023-10-31T03:06:10;5.40;;;3.05;;
16784;SDS011;8509;52.178;5.404;2023-10-31T03:08:36;9.48;;;3.38;;
16784;SDS011;8509;52.178;5.404;2023-10-31T03:11:02;9.23;;;4.10;;
16784;SDS011;8509;52.178;5.404;2023-10-31T03:13:28;10.10;;;3.80;;
16784;SDS011;8509;52.178;5.404;2023-10-31T03:15:53;4.57;;;3.03;;
16784;SDS011;8509;52.178;5.404;2023-10-31T03:18:19;7.75;;;3.90;;
16784;SDS011;8509;52.178;5.404;2023-10-31T03:20:45;7.63;;;3.03;;
16784;SDS011;8509;52.178;5.404;2023-10-31T03:23:13;4.53;;;2.53;;
16784;SDS011;8509;52.178;5.404;2023-10-31T03:25:39;4.47;;;2.55;;
16784;SDS011;8509;52.178;5.404;2023-10-31T03:30:45;4.80;;;2.28;;
16784;SDS011;8509;52.178;5.404;2023-10-31T03:33:14;16.08;;;2.88;;
16784;SDS011;8509;52.178;5.404;2023-10-31T03:35:41;5.60;;;2.33;;
16784;SDS011;8509;52.178;5.404;2023-10-31T03:38:07;5.72;;;1.85;;
16784;SDS011;8509;52.178;5.404;2023-10-31T03:40:33;3.90;;;2.63;;
16784;SDS011;8509;52.178;5.404;2023-10-31T03:42:58;2.22;;;1.55;;
16784;SDS011;8509;52.178;5.404;2023-10-31T03:45:24;4.93;;;2.55;;
16784;SDS011;8509;52.178;5.404;2023-10-31T03:47:50;2.00;;;1.27;;
16784;SDS011;8509;52.178;5.404;2023-10-31T03:50:15;2.20;;;1.73;;
16784;SDS011;8509;52.178;5.404;2023-10-31T03:52:41;3.15;;;1.25;;
16784;SDS011;8509;52.178;5.404;2023-10-31T03:55:07;5.05;;;1.38;;
16784;SDS011;8509;52.178;5.404;2023-10-31T03:57:33;1.60;;;1.02;;
16784;SDS011;8509;52.178;5.404;2023-10-31T03:59:59;2.70;;;1.15;;
16784;SDS011;8509;52.178;5.404;2023-10-31T04:02:25;0.90;;;0.88;;
16784;SDS011;8509;52.178;5.404;2023-10-31T04:04:50;3.20;;;0.85;;
16784;SDS011;8509;52.178;5.404;2023-10-31T04:07:16;1.45;;;1.20;;
16784;SDS011;8509;52.178;5.404;2023-10-31T04:09:41;0.82;;;0.65;;
16784;SDS011;8509;52.178;5.404;2023-10-31T04:12:08;9.35;;;1.23;;
16784;SDS011;8509;52.178;5.404;2023-10-31T04:14:34;0.88;;;0.60;;
16784;SDS011;8509;52.178;5.404;2023-10-31T04:16:59;1.10;;;0.75;;
16784;SDS011;8509;52.178;5.404;2023-10-31T04:19:25;2.22;;;1.05;;
16784;SDS011;8509;52.178;5.404;2023-10-31T04:21:52;1.08;;;0.98;;
16784;SDS011;8509;52.178;5.404;2023-10-31T04:24:19;2.53;;;0.70;;
16784;SDS011;8509;52.178;5.404;2023-10-31T04:26:44;0.77;;;0.70;;
16784;SDS011;8509;52.178;5.404;2023-10-31T04:29:10;0.75;;;0.73;;
16784;SDS011;8509;52.178;5.404;2023-10-31T04:31:35;0.88;;;0.88;;
16784;SDS011;8509;52.178;5.404;2023-10-31T04:34:01;1.17;;;0.80;;
16784;SDS011;8509;52.178;5.404;2023-10-31T04:36:27;0.98;;;0.68;;
16784;SDS011;8509;52.178;5.404;2023-10-31T04:38:53;1.13;;;0.50;;
16784;SDS011;8509;52.178;5.404;2023-10-31T04:41:19;1.10;;;0.40;;
16784;SDS011;8509;52.178;5.404;2023-10-31T04:43:44;0.43;;;0.43;;
16784;SDS011;8509;52.178;5.404;2023-10-31T04:46:10;0.50;;;0.30;;
16784;SDS011;8509;52.178;5.404;2023-10-31T04:48:36;0.50;;;0.50;;
16784;SDS011;8509;52.178;5.404;2023-10-31T04:51:02;3.42;;;0.55;;
16784;SDS011;8509;52.178;5.404;2023-10-31T04:53:28;0.30;;;0.30;;
16784;SDS011;8509;52.178;5.404;2023-10-31T04:55:54;0.40;;;0.40;;
16784;SDS011;8509;52.178;5.404;2023-10-31T04:58:20;0.20;;;0.20;;
16784;SDS011;8509;52.178;5.404;2023-10-31T05:00:46;0.20;;;0.20;;
16784;SDS011;8509;52.178;5.404;2023-10-31T05:03:12;0.30;;;0.30;;
16784;SDS011;8509;52.178;5.404;2023-10-31T05:05:37;0.50;;;0.50;;
16784;SDS011;8509;52.178;5.404;2023-10-31T05:08:03;3.83;;;0.32;;
16784;SDS011;8509;52.178;5.404;2023-10-31T05:10:29;0.32;;;0.32;;
16784;SDS011;8509;52.178;5.404;2023-10-31T05:12:54;0.28;;;0.28;;
16784;SDS011;8509;52.178;5.404;2023-10-31T05:15:20;0.30;;;0.30;;
16784;SDS011;8509;52.178;5.404;2023-10-31T05:17:46;0.30;;;0.30;;
16784;SDS011;8509;52.178;5.404;2023-10-31T05:20:11;3.60;;;1.48;;
16784;SDS011;8509;52.178;5.404;2023-10-31T05:22:37;0.40;;;0.40;;
16784;SDS011;8509;52.178;5.404;2023-10-31T05:25:03;0.52;;;0.38;;
16784;SDS011;8509;52.178;5.404;2023-10-31T05:27:30;2.85;;;0.40;;
16784;SDS011;8509;52.178;5.404;2023-10-31T05:29:56;0.32;;;0.32;;
16784;SDS011;8509;52.178;5.404;2023-10-31T05:32:21;3.15;;;0.80;;
16784;SDS011;8509;52.178;5.404;2023-10-31T05:34:47;0.40;;;0.40;;
16784;SDS011;8509;52.178;5.404;2023-10-31T05:37:12;1.95;;;0.93;;
16784;SDS011;8509;52.178;5.404;2023-10-31T05:39:38;1.58;;;0.65;;
16784;SDS011;8509;52.178;5.404;2023-10-31T05:42:04;0.82;;;0.60;;
16784;SDS011;8509;52.178;5.404;2023-10-31T05:44:29;9.00;;;0.80;;
16784;SDS011;8509;52.178;5.404;2023-10-31T05:46:55;0.60;;;0.57;;
16784;SDS011;8509;52.178;5.404;2023-10-31T05:49:20;4.05;;;0.60;;
16784;SDS011;8509;52.178;5.404;2023-10-31T05:51:52;1.50;;;0.68;;
16784;SDS011;8509;52.178;5.404;2023-10-31T05:56:44;3.97;;;0.60;;
16784;SDS011;8509;52.178;5.404;2023-10-31T05:59:13;0.45;;;0.40;;
16784;SDS011;8509;52.178;5.404;2023-10-31T06:01:38;0.82;;;0.50;;
16784;SDS011;8509;52.178;5.404;2023-10-31T06:04:04;1.85;;;0.98;;
16784;SDS011;8509;52.178;5.404;2023-10-31T06:06:36;0.57;;;0.50;;
16784;SDS011;8509;52.178;5.404;2023-10-31T06:09:03;0.75;;;0.75;;
16784;SDS011;8509;52.178;5.404;2023-10-31T06:11:29;0.43;;;0.43;;
16784;SDS011;8509;52.178;5.404;2023-10-31T06:13:55;2.50;;;0.60;;
16784;SDS011;8509;52.178;5.404;2023-10-31T06:16:20;1.35;;;0.70;;
16784;SDS011;8509;52.178;5.404;2023-10-31T06:18:46;2.00;;;1.80;;
16784;SDS011;8509;52.178;5.404;2023-10-31T06:21:12;0.82;;;0.63;;
16784;SDS011;8509;52.178;5.404;2023-10-31T06:23:37;1.33;;;0.98;;
16784;SDS011;8509;52.178;5.404;2023-10-31T06:26:03;1.13;;;0.75;;
16784;SDS011;8509;52.178;5.404;2023-10-31T06:28:29;1.48;;;0.98;;
16784;SDS011;8509;52.178;5.404;2023-10-31T06:30:55;3.00;;;1.30;;
16784;SDS011;8509;52.178;5.404;2023-10-31T06:33:21;4.05;;;1.50;;
16784;SDS011;8509;52.178;5.404;2023-10-31T06:35:46;5.40;;;1.30;;
16784;SDS011;8509;52.178;5.404;2023-10-31T06:38:12;2.90;;;2.03;;
16784;SDS011;8509;52.178;5.404;2023-10-31T06:40:38;2.63;;;1.98;;
16784;SDS011;8509;52.178;5.404;2023-10-31T06:43:03;3.58;;;1.33;;
16784;SDS011;8509;52.178;5.404;2023-10-31T06:45:29;3.40;;;1.40;;
16784;SDS011;8509;52.178;5.404;2023-10-31T06:47:54;6.35;;;1.77;;
16784;SDS011;8509;52.178;5.404;2023-10-31T06:50:20;4.97;;;2.30;;
16784;SDS011;8509;52.178;5.404;2023-10-31T06:52:46;3.22;;;1.48;;
16784;SDS011;8509;52.178;5.404;2023-10-31T06:55:12;3.22;;;1.65;;
16784;SDS011;8509;52.178;5.404;2023-10-31T06:57:38;4.28;;;1.83;;
16784;SDS011;8509;52.178;5.404;2023-10-31T07:00:04;2.00;;;1.45;;
16784;SDS011;8509;52.178;5.404;2023-10-31T07:02:33;1.83;;;1.48;;
16784;SDS011;8509;52.178;5.404;2023-10-31T07:04:58;2.60;;;1.58;;
16784;SDS011;8509;52.178;5.404;2023-10-31T07:07:24;4.85;;;2.22;;
16784;SDS011;8509;52.178;5.404;2023-10-31T07:09:50;2.10;;;1.30;;
16784;SDS011;8509;52.178;5.404;2023-10-31T07:12:15;11.57;;;2.30;;
16784;SDS011;8509;52.178;5.404;2023-10-31T07:14:41;1.33;;;1.08;;
16784;SDS011;8509;52.178;5.404;2023-10-31T07:17:06;5.40;;;2.10;;
16784;SDS011;8509;52.178;5.404;2023-10-31T07:19:32;2.28;;;1.38;;
16784;SDS011;8509;52.178;5.404;2023-10-31T07:21:58;3.13;;;1.50;;
16784;SDS011;8509;52.178;5.404;2023-10-31T07:24:23;1.02;;;0.93;;
16784;SDS011;8509;52.178;5.404;2023-10-31T07:26:51;2.58;;;1.50;;
16784;SDS011;8509;52.178;5.404;2023-10-31T07:29:17;1.98;;;1.30;;
16784;SDS011;8509;52.178;5.404;2023-10-31T07:31:42;1.27;;;0.60;;
16784;SDS011;8509;52.178;5.404;2023-10-31T07:34:08;2.30;;;1.00;;
16784;SDS011;8509;52.178;5.404;2023-10-31T07:36:36;1.88;;;0.80;;
16784;SDS011;8509;52.178;5.404;2023-10-31T07:39:02;1.23;;;0.82;;
16784;SDS011;8509;52.178;5.404;2023-10-31T07:41:29;1.45;;;0.82;;
16784;SDS011;8509;52.178;5.404;2023-10-31T07:43:54;2.17;;;0.80;;
16784;SDS011;8509;52.178;5.404;2023-10-31T07:46:20;5.55;;;1.52;;
16784;SDS011;8509;52.178;5.404;2023-10-31T07:48:46;3.20;;;0.90;;
16784;SDS011;8509;52.178;5.404;2023-10-31T07:51:12;2.60;;;1.25;;
16784;SDS011;8509;52.178;5.404;2023-10-31T07:53:37;2.65;;;0.80;;
16784;SDS011;8509;52.178;5.404;2023-10-31T07:56:03;0.75;;;0.70;;
16784;SDS011;8509;52.178;5.404;2023-10-31T07:58:29;2.05;;;1.33;;
16784;SDS011;8509;52.178;5.404;2023-10-31T08:00:55;0.57;;;0.57;;
16784;SDS011;8509;52.178;5.404;2023-10-31T08:03:21;4.32;;;1.52;;
16784;SDS011;8509;52.178;5.404;2023-10-31T08:05:46;1.52;;;0.82;;
16784;SDS011;8509;52.178;5.404;2023-10-31T08:08:12;1.05;;;0.70;;
16784;SDS011;8509;52.178;5.404;2023-10-31T08:10:38;1.50;;;0.77;;
16784;SDS011;8509;52.178;5.404;2023-10-31T08:13:04;2.22;;;1.35;;
16784;SDS011;8509;52.178;5.404;2023-10-31T08:15:29;1.17;;;0.60;;
16784;SDS011;8509;52.178;5.404;2023-10-31T08:17:55;0.80;;;0.80;;
16784;SDS011;8509;52.178;5.404;2023-10-31T08:20:21;3.08;;;0.70;;
16784;SDS011;8509;52.178;5.404;2023-10-31T08:22:46;1.42;;;0.98;;
16784;SDS011;8509;52.178;5.404;2023-10-31T08:25:12;4.50;;;0.95;;
16784;SDS011;8509;52.178;5.404;2023-10-31T08:27:38;1.05;;;0.88;;
16784;SDS011;8509;52.178;5.404;2023-10-31T08:30:03;2.67;;;1.27;;
16784;SDS011;8509;52.178;5.404;2023-10-31T08:32:29;2.97;;;0.93;;
16784;SDS011;8509;52.178;5.404;2023-10-31T08:34:55;2.13;;;0.98;;
16784;SDS011;8509;52.178;5.404;2023-10-31T08:37:22;1.27;;;0.80;;
16784;SDS011;8509;52.178;5.404;2023-10-31T08:39:48;1.35;;;0.95;;
16784;SDS011;8509;52.178;5.404;2023-10-31T08:42:14;2.85;;;1.95;;
16784;SDS011;8509;52.178;5.404;2023-10-31T08:44:40;1.30;;;1.10;;
16784;SDS011;8509;52.178;5.404;2023-10-31T08:47:06;2.83;;;1.27;;
16784;SDS011;8509;52.178;5.404;2023-10-31T08:49:32;1.05;;;0.85;;
16784;SDS011;8509;52.178;5.404;2023-10-31T08:51:57;1.52;;;1.20;;
16784;SDS011;8509;52.178;5.404;2023-10-31T08:54:23;3.22;;;1.15;;
16784;SDS011;8509;52.178;5.404;2023-10-31T08:56:48;2.38;;;1.42;;
16784;SDS011;8509;52.178;5.404;2023-10-31T08:59:15;1.95;;;1.27;;
16784;SDS011;8509;52.178;5.404;2023-10-31T09:01:43;1.20;;;0.90;;
16784;SDS011;8509;52.178;5.404;2023-10-31T09:04:09;5.22;;;1.13;;
16784;SDS011;8509;52.178;5.404;2023-10-31T09:06:34;3.88;;;1.63;;
16784;SDS011;8509;52.178;5.404;2023-10-31T09:09:00;8.02;;;1.40;;
16784;SDS011;8509;52.178;5.404;2023-10-31T09:11:26;4.28;;;1.35;;
16784;SDS011;8509;52.178;5.404;2023-10-31T09:13:52;3.08;;;1.50;;
16784;SDS011;8509;52.178;5.404;2023-10-31T09:16:17;4.35;;;1.67;;
16784;SDS011;8509;52.178;5.404;2023-10-31T09:18:43;3.00;;;1.25;;
16784;SDS011;8509;52.178;5.404;2023-10-31T09:21:09;8.05;;;1.23;;
16784;SDS011;8509;52.178;5.404;2023-10-31T09:23:35;0.93;;;0.70;;
16784;SDS011;8509;52.178;5.404;2023-10-31T09:26:01;1.35;;;1.08;;
16784;SDS011;8509;52.178;5.404;2023-10-31T09:28:27;1.67;;;1.00;;
16784;SDS011;8509;52.178;5.404;2023-10-31T09:30:53;2.97;;;0.85;;
16784;SDS011;8509;52.178;5.404;2023-10-31T09:33:18;2.88;;;0.90;;
16784;SDS011;8509;52.178;5.404;2023-10-31T09:35:44;3.75;;;1.67;;
16784;SDS011;8509;52.178;5.404;2023-10-31T09:38:10;1.67;;;1.23;;
16784;SDS011;8509;52.178;5.404;2023-10-31T09:40:37;1.90;;;1.17;;
16784;SDS011;8509;52.178;5.404;2023-10-31T09:43:06;7.85;;;1.48;;
16784;SDS011;8509;52.178;5.404;2023-10-31T09:45:32;6.35;;;1.38;;
16784;SDS011;8509;52.178;5.404;2023-10-31T09:47:58;6.20;;;1.13;;
16784;SDS011;8509;52.178;5.404;2023-10-31T09:50:26;1.58;;;1.00;;
16784;SDS011;8509;52.178;5.404;2023-10-31T09:52:53;9.88;;;2.08;;
16784;SDS011;8509;52.178;5.404;2023-10-31T09:55:20;2.72;;;1.92;;
16784;SDS011;8509;52.178;5.404;2023-10-31T09:57:47;2.63;;;1.65;;
16784;SDS011;8509;52.178;5.404;2023-10-31T10:00:13;2.20;;;1.13;;
16784;SDS011;8509;52.178;5.404;2023-10-31T10:02:38;2.05;;;1.38;;
16784;SDS011;8509;52.178;5.404;2023-10-31T10:05:05;6.82;;;2.55;;
16784;SDS011;8509;52.178;5.404;2023-10-31T10:07:31;3.13;;;1.30;;
16784;SDS011;8509;52.178;5.404;2023-10-31T10:10:00;5.80;;;1.85;;
16784;SDS011;8509;52.178;5.404;2023-10-31T10:12:25;8.60;;;1.63;;
16784;SDS011;8509;52.178;5.404;2023-10-31T10:14:51;5.00;;;2.08;;
16784;SDS011;8509;52.178;5.404;2023-10-31T10:17:19;3.72;;;2.20;;
16784;SDS011;8509;52.178;5.404;2023-10-31T10:19:47;5.05;;;1.70;;
16784;SDS011;8509;52.178;5.404;2023-10-31T10:22:12;3.40;;;1.88;;
16784;SDS011;8509;52.178;5.404;2023-10-31T10:24:40;2.72;;;1.73;;
16784;SDS011;8509;52.178;5.404;2023-10-31T10:27:09;4.13;;;1.10;;
16784;SDS011;8509;52.178;5.404;2023-10-31T10:29:37;3.35;;;1.65;;
16784;SDS011;8509;52.178;5.404;2023-10-31T10:32:06;3.42;;;0.95;;
16784;SDS011;8509;52.178;5.404;2023-10-31T10:34:34;2.17;;;1.27;;
16784;SDS011;8509;52.178;5.404;2023-10-31T10:37:00;1.95;;;1.40;;
16784;SDS011;8509;52.178;5.404;2023-10-31T10:39:29;3.25;;;1.45;;
16784;SDS011;8509;52.178;5.404;2023-10-31T10:41:57;3.38;;;1.55;;
16784;SDS011;8509;52.178;5.404;2023-10-31T10:44:32;4.90;;;2.10;;
16784;SDS011;8509;52.178;5.404;2023-10-31T10:47:03;6.60;;;1.70;;
16784;SDS011;8509;52.178;5.404;2023-10-31T10:49:33;1.42;;;1.15;;
16784;SDS011;8509;52.178;5.404;2023-10-31T10:52:10;5.63;;;1.50;;
16784;SDS011;8509;52.178;5.404;2023-10-31T10:57:37;3.13;;;1.38;;
16784;SDS011;8509;52.178;5.404;2023-10-31T11:00:07;1.50;;;1.17;;
16784;SDS011;8509;52.178;5.404;2023-10-31T11:02:36;2.42;;;2.10;;
16784;SDS011;8509;52.178;5.404;2023-10-31T11:05:04;2.92;;;1.23;;
16784;SDS011;8509;52.178;5.404;2023-10-31T11:07:32;1.90;;;1.10;;
16784;SDS011;8509;52.178;5.404;2023-10-31T11:10:02;3.65;;;1.10;;
16784;SDS011;8509;52.178;5.404;2023-10-31T11:12:30;3.13;;;0.85;;
16784;SDS011;8509;52.178;5.404;2023-10-31T11:15:18;0.60;;;0.60;;
16784;SDS011;8509;52.178;5.404;2023-10-31T11:17:49;1.13;;;0.87;;
16784;SDS011;8509;52.178;5.404;2023-10-31T11:20:18;6.20;;;1.08;;
16784;SDS011;8509;52.178;5.404;2023-10-31T11:22:57;0.82;;;0.80;;
16784;SDS011;8509;52.178;5.404;2023-10-31T11:25:38;2.10;;;0.90;;
16784;SDS011;8509;52.178;5.404;2023-10-31T11:28:41;2.00;;;0.90;;
16784;SDS011;8509;52.178;5.404;2023-10-31T11:31:12;1.13;;;0.77;;
16784;SDS011;8509;52.178;5.404;2023-10-31T11:33:47;2.30;;;0.77;;
16784;SDS011;8509;52.178;5.404;2023-10-31T11:36:14;2.28;;;0.60;;
16784;SDS011;8509;52.178;5.404;2023-10-31T11:38:47;4.18;;;1.38;;
16784;SDS011;8509;52.178;5.404;2023-10-31T11:41:15;2.28;;;0.93;;
16784;SDS011;8509;52.178;5.404;2023-10-31T11:46:19;1.38;;;0.85;;
16784;SDS011;8509;52.178;5.404;2023-10-31T11:51:23;0.70;;;0.70;;
16784;SDS011;8509;52.178;5.404;2023-10-31T11:53:51;1.35;;;0.60;;
16784;SDS011;8509;52.178;5.404;2023-10-31T11:56:17;1.52;;;0.80;;
16784;SDS011;8509;52.178;5.404;2023-10-31T11:58:44;3.53;;;1.20;;
16784;SDS011;8509;52.178;5.404;2023-10-31T12:01:09;3.72;;;1.05;;
16784;SDS011;8509;52.178;5.404;2023-10-31T12:03:42;1.05;;;0.88;;
16784;SDS011;8509;52.178;5.404;2023-10-31T12:06:12;1.60;;;0.85;;
16784;SDS011;8509;52.178;5.404;2023-10-31T12:08:40;2.53;;;1.02;;
16784;SDS011;8509;52.178;5.404;2023-10-31T12:11:13;1.95;;;0.95;;
16784;SDS011;8509;52.178;5.404;2023-10-31T12:13:51;2.65;;;1.08;;
16784;SDS011;8509;52.178;5.404;2023-10-31T12:16:29;8.82;;;1.10;;
16784;SDS011;8509;52.178;5.404;2023-10-31T12:18:56;0.88;;;0.88;;
16784;SDS011;8509;52.178;5.404;2023-10-31T12:21:40;0.90;;;0.60;;
16784;SDS011;8509;52.178;5.404;2023-10-31T12:24:16;0.43;;;0.43;;
16784;SDS011;8509;52.178;5.404;2023-10-31T12:26:43;0.60;;;0.60;;
16784;SDS011;8509;52.178;5.404;2023-10-31T12:29:16;2.17;;;1.05;;
16784;SDS011;8509;52.178;5.404;2023-10-31T12:34:10;1.10;;;0.55;;
16784;SDS011;8509;52.178;5.404;2023-10-31T12:36:36;1.23;;;1.13;;
16784;SDS011;8509;52.178;5.404;2023-10-31T12:39:03;1.73;;;1.00;;
16784;SDS011;8509;52.178;5.404;2023-10-31T12:41:31;1.45;;;1.35;;
16784;SDS011;8509;52.178;5.404;2023-10-31T12:43:57;4.65;;;2.08;;
16784;SDS011;8509;52.178;5.404;2023-10-31T12:46:27;5.10;;;2.38;;
16784;SDS011;8509;52.178;5.404;2023-10-31T12:48:57;5.22;;;2.53;;
16784;SDS011;8509;52.178;5.404;2023-10-31T12:51:23;6.45;;;3.25;;
16784;SDS011;8509;52.178;5.404;2023-10-31T12:53:49;6.07;;;3.40;;
16784;SDS011;8509;52.178;5.404;2023-10-31T12:56:34;6.78;;;3.55;;
16784;SDS011;8509;52.178;5.404;2023-10-31T12:59:07;5.32;;;3.72;;
16784;SDS011;8509;52.178;5.404;2023-10-31T13:01:36;7.90;;;4.32;;
16784;SDS011;8509;52.178;5.404;2023-10-31T13:04:05;10.75;;;5.75;;
16784;SDS011;8509;52.178;5.404;2023-10-31T13:06:31;6.63;;;4.18;;
16784;SDS011;8509;52.178;5.404;2023-10-31T13:08:58;9.98;;;4.85;;
16784;SDS011;8509;52.178;5.404;2023-10-31T13:11:24;7.32;;;4.68;;
16784;SDS011;8509;52.178;5.404;2023-10-31T13:13:54;10.23;;;4.60;;
16784;SDS011;8509;52.178;5.404;2023-10-31T13:16:20;7.30;;;3.90;;
16784;SDS011;8509;52.178;5.404;2023-10-31T13:18:46;12.55;;;5.65;;
16784;SDS011;8509;52.178;5.404;2023-10-31T13:21:12;6.53;;;4.05;;
16784;SDS011;8509;52.178;5.404;2023-10-31T13:23:40;12.60;;;5.57;;
16784;SDS011;8509;52.178;5.404;2023-10-31T13:26:08;13.13;;;5.40;;
16784;SDS011;8509;52.178;5.404;2023-10-31T13:28:34;15.55;;;5.78;;
16784;SDS011;8509;52.178;5.404;2023-10-31T13:31:00;14.27;;;6.05;;
16784;SDS011;8509;52.178;5.404;2023-10-31T13:33:27;11.73;;;5.95;;
16784;SDS011;8509;52.178;5.404;2023-10-31T13:35:53;13.35;;;6.70;;
16784;SDS011;8509;52.178;5.404;2023-10-31T13:38:18;14.38;;;6.20;;
16784;SDS011;8509;52.178;5.404;2023-10-31T13:40:44;16.60;;;6.25;;
16784;SDS011;8509;52.178;5.404;2023-10-31T13:43:10;15.60;;;5.90;;
16784;SDS011;8509;52.178;5.404;2023-10-31T13:45:35;15.35;;;6.90;;
16784;SDS011;8509;52.178;5.404;2023-10-31T13:48:01;16.27;;;6.45;;
16784;SDS011;8509;52.178;5.404;2023-10-31T13:50:28;14.63;;;7.18;;
16784;SDS011;8509;52.178;5.404;2023-10-31T13:52:53;12.25;;;6.03;;
16784;SDS011;8509;52.178;5.404;2023-10-31T13:55:19;14.68;;;7.05;;
16784;SDS011;8509;52.178;5.404;2023-10-31T13:57:45;19.20;;;8.23;;
16784;SDS011;8509;52.178;5.404;2023-10-31T14:00:10;14.88;;;6.53;;
16784;SDS011;8509;52.178;5.404;2023-10-31T14:02:36;12.25;;;6.00;;
16784;SDS011;8509;52.178;5.404;2023-10-31T14:05:03;16.42;;;6.18;;
16784;SDS011;8509;52.178;5.404;2023-10-31T14:07:29;10.63;;;6.00;;
16784;SDS011;8509;52.178;5.404;2023-10-31T14:09:55;10.18;;;5.03;;
16784;SDS011;8509;52.178;5.404;2023-10-31T14:12:22;8.73;;;4.72;;
16784;SDS011;8509;52.178;5.404;2023-10-31T14:14:48;13.70;;;6.10;;
16784;SDS011;8509;52.178;5.404;2023-10-31T14:17:14;9.70;;;5.03;;
16784;SDS011;8509;52.178;5.404;2023-10-31T14:19:41;8.02;;;5.03;;
16784;SDS011;8509;52.178;5.404;2023-10-31T14:22:07;8.32;;;4.55;;
16784;SDS011;8509;52.178;5.404;2023-10-31T14:24:33;11.10;;;5.18;;
16784;SDS011;8509;52.178;5.404;2023-10-31T14:27:00;7.88;;;4.13;;
16784;SDS011;8509;52.178;5.404;2023-10-31T14:29:26;8.77;;;4.30;;
16784;SDS011;8509;52.178;5.404;2023-10-31T14:31:51;10.95;;;4.75;;
16784;SDS011;8509;52.178;5.404;2023-10-31T14:34:19;8.38;;;4.90;;
16784;SDS011;8509;52.178;5.404;2023-10-31T14:36:45;8.82;;;5.10;;
16784;SDS011;8509;52.178;5.404;2023-10-31T14:39:11;9.02;;;4.78;;
16784;SDS011;8509;52.178;5.404;2023-10-31T14:41:37;8.38;;;4.65;;
16784;SDS011;8509;52.178;5.404;2023-10-31T14:44:03;9.40;;;4.03;;
16784;SDS011;8509;52.178;5.404;2023-10-31T14:46:30;9.73;;;4.90;;
16784;SDS011;8509;52.178;5.404;2023-10-31T14:48:57;9.45;;;5.07;;
16784;SDS011;8509;52.178;5.404;2023-10-31T14:51:22;10.27;;;5.03;;
16784;SDS011;8509;52.178;5.404;2023-10-31T14:53:48;9.02;;;4.60;;
16784;SDS011;8509;52.178;5.404;2023-10-31T14:56:14;11.77;;;4.90;;
16784;SDS011;8509;52.178;5.404;2023-10-31T14:58:40;11.20;;;5.28;;
16784;SDS011;8509;52.178;5.404;2023-10-31T15:01:06;10.63;;;5.05;;
16784;SDS011;8509;52.178;5.404;2023-10-31T15:03:32;12.57;;;6.47;;
16784;SDS011;8509;52.178;5.404;2023-10-31T15:05:57;12.30;;;5.93;;
16784;SDS011;8509;52.178;5.404;2023-10-31T15:08:24;9.52;;;5.35;;
16784;SDS011;8509;52.178;5.404;2023-10-31T15:10:53;13.45;;;6.30;;
16784;SDS011;8509;52.178;5.404;2023-10-31T15:13:20;12.48;;;6.28;;